Time;durP1;ratioP1;P1;durP2;ratioP2;P2;SDS_P1;SDS_P2;PMS_P1;PMS_P2;Temp;Humidity;BMP_temperature;BMP_pressure;BME280_temperature;BME280_humidity;BME280_pressure;Samples;Min_cycle;Max_cycle;Signal;HPM_P1;HPM_P2
2021/01/11 00:01:41;;;;;;;50.72;30.92;;;;;;;6.90;60.28;102207.09;4931026;28;124695;-71
2021/01/11 00:04:09;;;;;;;51.47;31.63;;;;;;;6.90;60.42;102204.44;4897483;28;123852;-71
2021/01/11 00:06:44;;;;;;;57.13;31.92;;;;;;;6.88;60.27;102200.97;4903163;28;113178;-71
2021/01/11 00:09:12;;;;;;;52.92;31.92;;;;;;;6.88;60.35;102200.97;4930893;28;113900;-71
2021/01/11 00:11:39;;;;;;;54.40;31.95;;;;;;;6.86;60.07;102202.72;4931244;28;124292;-71
2021/01/11 00:14:06;;;;;;;55.67;32.60;;;;;;;6.82;60.33;102197.47;4930154;28;124020;-71
2021/01/11 00:16:33;;;;;;;54.05;31.67;;;;;;;6.81;60.31;102193.09;4898588;28;113924;-72
2021/01/11 00:19:03;;;;;;;56.38;33.33;;;;;;;6.81;60.39;102184.31;4901749;28;113624;-70
2021/01/11 00:21:29;;;;;;;55.85;34.08;;;;;;;6.80;60.49;102188.72;4930197;28;123827;-74
2021/01/11 00:23:56;;;;;;;56.60;34.92;;;;;;;6.80;60.44;102188.72;4929816;28;123888;-71
2021/01/11 00:26:23;;;;;;;56.80;34.08;;;;;;;6.79;60.30;102191.34;4930219;28;115329;-71
2021/01/11 00:28:50;;;;;;;63.33;35.97;;;;;;;6.78;60.27;102195.75;4933820;28;114945;-72
2021/01/11 00:31:22;;;;;;;61.90;34.70;;;;;;;6.78;60.58;102195.75;4933333;28;124263;-71
2021/01/11 00:33:51;;;;;;;59.45;34.95;;;;;;;6.76;60.18;102196.63;4929505;28;123975;-71
2021/01/11 00:36:18;;;;;;;61.33;36.00;;;;;;;6.74;60.16;102194.03;4913255;28;113874;-72
2021/01/11 00:38:46;;;;;;;63.10;35.83;;;;;;;6.73;60.48;102186.16;4913425;28;113441;-71
2021/01/11 00:41:17;;;;;;;60.72;35.92;;;;;;;6.72;60.39;102185.25;4930939;28;124433;-72
2021/01/11 00:43:45;;;;;;;59.35;35.63;;;;;;;6.72;60.39;102190.50;4930030;28;123931;-71
2021/01/11 00:46:23;;;;;;;60.85;36.42;;;;;;;6.70;60.22;102187.03;4918810;28;114540;-71
2021/01/11 00:48:51;;;;;;;62.17;36.55;;;;;;;6.71;60.61;102182.66;4900386;28;113226;-71
2021/01/11 00:51:18;;;;;;;66.38;37.03;;;;;;;6.70;60.43;102181.75;4915751;28;123660;-71
2021/01/11 00:53:46;;;;;;;66.72;36.50;;;;;;;6.67;60.38;102176.53;4921002;28;122327;-72
2021/01/11 00:56:16;;;;;;;63.80;36.78;;;;;;;6.67;60.63;102176.53;4919553;28;113297;-72
2021/01/11 00:58:44;;;;;;;63.17;36.45;;;;;;;6.67;60.32;102173.91;4933568;28;114705;-71
2021/01/11 01:01:14;;;;;;;63.42;37.17;;;;;;;6.67;60.55;102180.91;4903101;28;124527;-70
2021/01/11 01:03:42;;;;;;;64.38;36.45;;;;;;;6.66;60.33;102180.03;4933596;28;124541;-70
2021/01/11 01:06:10;;;;;;;63.22;37.42;;;;;;;6.67;60.63;102179.16;4935405;28;114982;-71
2021/01/11 01:08:38;;;;;;;65.32;37.40;;;;;;;6.67;60.45;102181.78;4916684;28;113086;-72
2021/01/11 01:11:05;;;;;;;65.22;36.30;;;;;;;6.67;60.45;102179.16;4933294;28;123369;-72
2021/01/11 01:13:31;;;;;;;69.60;37.95;;;;;;;6.67;60.66;102176.53;4914953;28;122258;-72
2021/01/11 01:15:59;;;;;;;65.30;37.00;;;;;;;6.66;60.54;102174.78;4901304;28;115413;-71
2021/01/11 01:18:26;;;;;;;67.90;37.20;;;;;;;6.64;60.31;102166.00;4931843;28;114345;-71
2021/01/11 01:20:53;;;;;;;68.53;38.25;;;;;;;6.62;60.95;102167.78;4903428;28;123472;-72
2021/01/11 01:23:20;;;;;;;70.75;36.45;;;;;;;6.61;60.56;102160.75;4932402;28;124186;-71
2021/01/11 01:25:46;;;;;;;68.68;37.45;;;;;;;6.58;60.89;102160.81;4932001;28;114119;-71
2021/01/11 01:28:13;;;;;;;69.53;37.60;;;;;;;6.59;60.85;102159.91;4935716;28;114290;-72
2021/01/11 01:30:40;;;;;;;69.30;37.00;;;;;;;6.58;60.57;102150.28;4935662;28;123944;-72
2021/01/11 01:33:07;;;;;;;71.93;37.28;;;;;;;6.55;60.65;102155.53;4930733;28;124157;-72
2021/01/11 01:35:34;;;;;;;72.65;36.50;;;;;;;6.53;60.86;102155.56;4932798;28;114564;-71
2021/01/11 01:38:00;;;;;;;68.75;36.78;;;;;;;6.53;60.83;102162.59;4916529;28;114125;-71
2021/01/11 01:40:27;;;;;;;74.65;36.92;;;;;;;6.51;60.73;102161.72;4914803;28;123194;-71
2021/01/11 01:42:54;;;;;;;66.65;36.05;;;;;;;6.49;60.75;102166.13;4932382;28;123908;-71
2021/01/11 01:45:21;;;;;;;70.25;35.72;;;;;;;6.48;60.79;102165.25;4935775;28;114266;-72
2021/01/11 01:47:48;;;;;;;78.22;37.60;;;;;;;6.47;60.79;102160.00;4930511;28;114150;-72
2021/01/11 01:50:15;;;;;;;71.50;36.25;;;;;;;6.47;60.69;102167.91;4917237;28;124164;-72
2021/01/11 01:52:43;;;;;;;69.28;35.70;;;;;;;6.47;60.86;102170.53;4934970;28;123777;-72
2021/01/11 01:55:12;;;;;;;71.70;35.97;;;;;;;6.45;61.06;102169.66;4934412;28;114434;-72
2021/01/11 01:57:41;;;;;;;71.97;35.15;;;;;;;6.42;61.06;102166.19;4916366;28;113817;-71
2021/01/11 02:00:11;;;;;;;70.38;35.60;;;;;;;6.41;60.98;102169.69;4930359;28;124705;-72
2021/01/11 02:02:40;;;;;;;70.38;34.78;;;;;;;6.39;60.92;102160.06;4900147;28;123602;-73
2021/01/11 02:05:07;;;;;;;73.28;35.03;;;;;;;6.37;61.03;102162.69;4901366;28;113570;-72
2021/01/11 02:07:59;;;;;;;73.80;34.85;;;;;;;6.32;60.99;102159.19;4935663;28;114605;-72
2021/01/11 02:10:44;;;;;;;70.88;34.45;;;;;;;6.31;61.22;102162.72;4901490;28;122050;-71
2021/01/11 02:13:16;;;;;;;76.68;35.13;;;;;;;6.29;61.28;102153.97;4932678;28;123862;-72
2021/01/11 02:15:51;;;;;;;76.63;34.65;;;;;;;6.26;61.03;102153.13;4934817;28;114631;-71
2021/01/11 02:18:29;;;;;;;77.90;34.60;;;;;;;6.23;61.17;102138.22;4916326;28;114297;-71
2021/01/11 02:21:23;;;;;;;77.03;33.30;;;;;;;6.18;61.05;102134.75;4933020;28;124177;-71
2021/01/11 02:24:27;;;;;;;75.85;33.47;;;;;;;6.18;61.59;102134.75;4929950;28;123973;-71
2021/01/11 02:27:12;;;;;;;75.20;32.47;;;;;;;6.16;61.63;102132.13;4935320;28;114317;-71
2021/01/11 02:29:58;;;;;;;76.28;32.92;;;;;;;6.14;61.35;102133.00;4916722;28;112873;-71
2021/01/11 02:32:26;;;;;;;77.50;32.25;;;;;;;6.16;61.48;102136.50;4901091;28;124491;-72
2021/01/11 02:34:55;;;;;;;75.15;32.83;;;;;;;6.16;61.70;102123.34;4928784;28;123927;-72
2021/01/11 02:37:23;;;;;;;76.43;34.38;;;;;;;6.16;61.70;102131.22;4917442;28;113263;-73
2021/01/11 02:39:49;;;;;;;72.75;31.98;;;;;;;6.15;61.57;102134.75;4930016;28;113259;-71
2021/01/11 02:42:16;;;;;;;83.35;32.33;;;;;;;6.14;61.64;102133.00;4917120;28;124011;-72
2021/01/11 02:44:42;;;;;;;74.13;32.38;;;;;;;6.16;61.83;102131.22;4916955;28;124660;-71
2021/01/11 02:47:10;;;;;;;80.03;32.33;;;;;;;6.15;61.83;102134.75;4901452;28;114360;-71
2021/01/11 02:49:44;;;;;;;69.20;30.80;;;;;;;6.13;61.56;102141.78;4935322;28;113755;-71
2021/01/11 02:52:20;;;;;;;76.57;33.08;;;;;;;6.12;61.77;102135.66;4915233;28;98585;-73
2021/01/11 02:55:01;;;;;;;69.00;30.85;;;;;;;6.14;61.71;102127.75;4914587;28;122932;-72
2021/01/11 02:57:39;;;;;;;76.63;31.45;;;;;;;6.12;61.85;102124.25;4919256;28;115381;-71
2021/01/11 03:00:09;;;;;;;69.32;30.67;;;;;;;6.11;62.03;102117.25;4916915;28;113887;-73
2021/01/11 03:02:40;;;;;;;78.15;32.00;;;;;;;6.09;61.88;102113.75;4930733;28;124291;-71
2021/01/11 03:05:07;;;;;;;74.30;30.98;;;;;;;6.09;61.99;102113.75;4929792;28;124168;-72
2021/01/11 03:07:34;;;;;;;70.80;29.80;;;;;;;6.07;61.92;102107.66;4916372;28;114664;-71
2021/01/11 03:10:01;;;;;;;69.10;30.13;;;;;;;6.06;62.05;102103.25;4932687;28;114418;-72
2021/01/11 03:12:27;;;;;;;76.47;31.50;;;;;;;6.04;61.92;102104.13;4901035;28;123823;-71
2021/01/11 03:14:54;;;;;;;75.15;30.48;;;;;;;6.03;62.27;102102.38;4930966;28;124136;-71
2021/01/11 03:17:20;;;;;;;64.10;28.63;;;;;;;6.03;61.87;102109.41;4898466;28;113410;-71
2021/01/11 03:19:47;;;;;;;68.82;29.40;;;;;;;6.02;61.83;102108.53;4931991;28;113116;-71
2021/01/11 03:22:14;;;;;;;62.53;27.98;;;;;;;6.04;62.21;102101.50;4933772;28;123972;-71
2021/01/11 03:24:44;;;;;;;64.47;28.20;;;;;;;6.03;62.15;102105.03;4932511;28;126009;-74
2021/01/11 03:27:10;;;;;;;68.55;29.00;;;;;;;6.02;62.13;102105.03;4931043;28;114652;-72
2021/01/11 03:29:37;;;;;;;66.78;28.85;;;;;;;5.99;62.17;102108.56;4934450;28;114420;-71
2021/01/11 03:32:04;;;;;;;67.10;30.15;;;;;;;5.97;62.00;102094.53;4931297;28;124730;-71
2021/01/11 03:34:30;;;;;;;63.20;27.15;;;;;;;5.94;61.97;102078.75;4929237;28;123815;-72
2021/01/11 03:36:57;;;;;;;65.25;29.73;;;;;;;5.92;61.96;102075.25;4931648;28;114234;-71
2021/01/11 03:39:24;;;;;;;71.47;30.88;;;;;;;5.92;62.27;102095.41;4931564;28;114271;-73
2021/01/11 03:41:50;;;;;;;70.65;29.48;;;;;;;5.90;62.29;102087.53;4896848;28;124147;-73
2021/01/11 03:44:17;;;;;;;64.57;27.85;;;;;;;5.90;62.50;102098.06;4932795;28;124391;-71
2021/01/11 03:46:43;;;;;;;63.58;27.45;;;;;;;5.90;62.13;102087.53;4930038;28;116570;-70
2021/01/11 03:49:10;;;;;;;59.45;28.10;;;;;;;5.88;62.57;102084.03;4936972;28;115028;-72
2021/01/11 03:51:37;;;;;;;67.68;29.20;;;;;;;5.89;62.36;102093.66;4901531;28;123705;-71
2021/01/11 03:54:03;;;;;;;64.13;27.67;;;;;;;5.90;62.63;102091.94;4930553;28;123797;-71
2021/01/11 03:56:30;;;;;;;64.88;27.35;;;;;;;5.90;62.23;102087.53;4902971;28;112990;-71
2021/01/11 03:58:57;;;;;;;63.75;27.38;;;;;;;5.89;62.39;102093.66;4932662;28;114266;-72
2021/01/11 04:01:26;;;;;;;58.33;27.08;;;;;;;5.89;62.48;102090.16;4931434;28;123838;-72
2021/01/11 04:03:53;;;;;;;57.63;25.58;;;;;;;5.90;62.53;102077.03;4885113;28;123517;-72
2021/01/11 04:06:20;;;;;;;58.80;25.88;;;;;;;5.92;62.67;102080.50;4918131;28;112942;-71
2021/01/11 04:08:48;;;;;;;59.85;26.17;;;;;;;5.91;62.77;102073.50;4931101;28;114166;-72
2021/01/11 04:11:19;;;;;;;58.28;26.60;;;;;;;5.92;62.85;102063.88;4916842;28;123004;-71
2021/01/11 04:13:47;;;;;;;61.45;26.45;;;;;;;5.92;62.63;102048.97;4934194;28;124224;-71
2021/01/11 04:16:15;;;;;;;60.78;27.25;;;;;;;5.94;62.61;102051.59;4915964;28;113146;-72
2021/01/11 04:18:42;;;;;;;64.15;26.80;;;;;;;5.93;62.55;102045.44;4931858;28;114215;-72
2021/01/11 04:21:12;;;;;;;64.53;27.13;;;;;;;5.93;62.83;102045.44;4934146;28;125627;-71
2021/01/11 04:23:39;;;;;;;65.07;27.42;;;;;;;5.96;62.91;102045.44;4933847;28;124510;-71
2021/01/11 04:26:09;;;;;;;68.30;28.85;;;;;;;5.96;62.82;102055.97;4967389;22;114287;-67
2021/01/11 04:28:36;;;;;;;66.80;29.08;;;;;;;5.97;62.93;102063.00;4919531;28;114218;-67
2021/01/11 04:31:04;;;;;;;69.43;29.23;;;;;;;5.95;62.92;102054.25;4939297;28;124667;-67
2021/01/11 04:33:30;;;;;;;71.90;30.13;;;;;;;5.96;63.11;102066.50;4917949;28;123086;-67
2021/01/11 04:35:57;;;;;;;73.45;29.13;;;;;;;5.96;62.82;102061.22;4901713;28;115375;-67
2021/01/11 04:38:24;;;;;;;77.38;31.02;;;;;;;5.98;63.10;102069.97;4941141;28;115429;-67
2021/01/11 04:40:50;;;;;;;86.68;32.78;;;;;;;5.99;62.87;102066.47;4938230;28;123796;-67
2021/01/11 04:43:18;;;;;;;79.82;31.63;;;;;;;6.00;62.81;102060.31;4931983;28;123290;-67
2021/01/11 04:45:45;;;;;;;86.05;34.00;;;;;;;6.00;63.11;102057.69;4936031;28;114122;-67
2021/01/11 04:48:13;;;;;;;82.75;32.70;;;;;;;6.00;63.06;102051.56;4938780;28;114344;-67
2021/01/11 04:50:45;;;;;;;88.07;33.95;;;;;;;5.98;63.19;102043.69;4905626;28;123308;-67
2021/01/11 04:53:11;;;;;;;84.47;33.33;;;;;;;5.98;63.03;102027.03;4935088;28;124225;-67
2021/01/11 04:55:39;;;;;;;84.95;33.85;;;;;;;6.00;63.03;102034.03;4917168;28;114743;-67
2021/01/11 04:58:11;;;;;;;89.50;34.78;;;;;;;6.01;63.21;102033.16;4938955;28;114098;-69
2021/01/11 05:00:39;;;;;;;84.00;33.67;;;;;;;6.02;63.37;102031.38;4937362;28;124070;-67
2021/01/11 05:03:09;;;;;;;92.28;35.33;;;;;;;6.03;63.06;102030.53;4933172;28;124315;-67
2021/01/11 05:05:45;;;;;;;90.88;35.20;;;;;;;6.03;63.28;102020.00;4921554;28;113040;-67
2021/01/11 05:08:11;;;;;;;83.05;35.20;;;;;;;6.02;63.03;102016.47;4928784;28;114179;-67
2021/01/11 05:10:40;;;;;;;95.85;36.40;;;;;;;6.03;63.27;102009.47;4938445;28;123807;-67
2021/01/11 05:13:11;;;;;;;84.38;35.10;;;;;;;6.03;63.13;102010.34;4933831;28;124207;-68
2021/01/11 05:15:39;;;;;;;82.80;34.35;;;;;;;6.03;63.04;102005.09;4935822;28;114354;-67
2021/01/11 05:18:14;;;;;;;82.80;34.88;;;;;;;6.02;63.21;102000.69;4917733;28;114467;-67
2021/01/11 05:20:42;;;;;;;81.65;34.20;;;;;;;6.04;63.09;102001.56;4918612;28;123234;-67
2021/01/11 05:23:10;;;;;;;79.43;34.65;;;;;;;6.06;63.30;102013.84;4935584;28;124304;-68
2021/01/11 05:25:37;;;;;;;73.63;34.08;;;;;;;6.06;63.09;102019.09;4935126;28;115454;-67
2021/01/11 05:28:15;;;;;;;78.32;34.78;;;;;;;6.06;63.19;102008.56;4902904;28;114017;-67
2021/01/11 05:30:49;;;;;;;80.07;34.28;;;;;;;6.06;63.42;102014.69;4931201;28;124289;-67
2021/01/11 05:33:18;;;;;;;;;;;;;;;6.08;63.06;102012.06;4933219;28;123979;-67
2021/01/11 05:35:46;;;;;;;73.82;32.33;;;;;;;6.10;63.21;102011.16;4937382;28;114758;-67
2021/01/11 05:38:18;;;;;;;73.53;34.45;;;;;;;6.10;63.37;102015.56;4936318;28;114059;-67
2021/01/11 05:40:48;;;;;;;75.75;34.05;;;;;;;6.08;63.31;102017.31;4918354;28;124277;-67
2021/01/11 05:43:19;;;;;;;79.72;36.00;;;;;;;6.07;63.40;102016.47;4929819;28;123798;-67
2021/01/11 05:45:46;;;;;;;75.30;34.35;;;;;;;6.08;63.46;102012.94;4936560;28;114275;-67
2021/01/11 05:48:14;;;;;;;77.47;36.08;;;;;;;6.09;63.25;102008.56;4935672;28;114383;-67
2021/01/11 05:50:49;;;;;;;76.68;35.95;;;;;;;6.08;63.54;102007.66;4921800;28;124102;-68
2021/01/11 05:53:21;;;;;;;76.83;37.40;;;;;;;6.08;63.36;102006.81;4931648;28;124091;-68
2021/01/11 05:55:50;;;;;;;77.88;36.22;;;;;;;6.10;63.26;101997.13;4931529;28;114530;-68
2021/01/11 05:58:18;;;;;;;72.47;35.40;;;;;;;6.11;63.44;101996.28;4938556;28;114697;-67
2021/01/11 06:00:45;;;;;;;70.05;34.63;;;;;;;6.11;63.39;101991.00;4933696;28;124111;-68
2021/01/11 06:03:13;;;;;;;68.53;35.05;;;;;;;6.13;63.58;101989.25;4932580;28;123838;-68
2021/01/11 06:05:40;;;;;;;67.10;34.38;;;;;;;6.12;63.55;101992.75;4938252;28;113988;-67
2021/01/11 06:08:10;;;;;;;66.53;34.20;;;;;;;6.13;63.46;101983.97;4921575;28;112813;-67
2021/01/11 06:10:37;;;;;;;63.25;33.40;;;;;;;6.15;63.67;101992.72;4936383;28;124722;-67
2021/01/11 06:13:09;;;;;;;63.15;33.05;;;;;;;6.15;63.56;102003.25;4918825;28;123940;-67
2021/01/11 06:15:37;;;;;;;62.35;32.22;;;;;;;6.16;63.36;102004.97;4936112;28;115041;-67
2021/01/11 06:18:09;;;;;;;60.30;32.92;;;;;;;6.14;63.56;102001.50;4920911;28;115187;-67
2021/01/11 06:20:42;;;;;;;59.80;32.20;;;;;;;6.13;63.37;101994.50;4916178;28;124340;-67
2021/01/11 06:23:11;;;;;;;60.70;31.95;;;;;;;6.12;63.61;102009.41;4937332;28;124395;-67
2021/01/11 06:25:39;;;;;;;58.97;31.70;;;;;;;6.12;63.45;101998.00;4920123;28;114196;-67
2021/01/11 06:28:09;;;;;;;58.65;32.58;;;;;;;6.12;63.78;102000.63;4934985;28;113812;-67
2021/01/11 06:30:38;;;;;;;58.08;31.02;;;;;;;6.12;63.34;101998.00;4934272;28;123815;-67
2021/01/11 06:33:24;;;;;;;57.45;31.58;;;;;;;6.12;63.45;102003.25;4931074;28;123500;-67
2021/01/11 06:35:53;;;;;;;54.88;30.50;;;;;;;6.11;63.92;101998.91;4923401;28;114448;-67
2021/01/11 06:38:25;;;;;;;57.47;31.27;;;;;;;6.13;63.53;101991.88;4939395;28;113935;-67
2021/01/11 06:41:01;;;;;;;55.83;30.70;;;;;;;6.13;63.46;101981.34;4935062;28;123471;-68
2021/01/11 06:43:40;;;;;;;58.50;31.00;;;;;;;6.14;63.44;101985.72;4932586;28;124365;-67
2021/01/11 06:46:06;;;;;;;53.10;30.00;;;;;;;6.14;63.50;101980.44;4933207;28;114885;-67
2021/01/11 06:48:34;;;;;;;52.90;30.30;;;;;;;6.16;63.67;101973.41;4915649;28;114075;-67
2021/01/11 06:51:09;;;;;;;57.35;30.92;;;;;;;6.17;63.51;101975.16;4933334;28;124290;-67
2021/01/11 06:53:39;;;;;;;52.53;29.83;;;;;;;6.18;63.63;101974.31;4916366;28;123495;-67
2021/01/11 06:56:11;;;;;;;53.10;29.85;;;;;;;6.17;63.83;101972.53;4936643;28;114327;-67
2021/01/11 06:58:39;;;;;;;54.08;30.08;;;;;;;6.18;63.73;101966.41;4934512;28;114478;-67
2021/01/11 07:01:08;;;;;;;53.55;30.85;;;;;;;6.19;63.66;101962.88;4936691;28;124738;-67
2021/01/11 07:03:46;;;;;;;52.78;29.85;;;;;;;6.18;63.69;101971.66;4927192;28;124072;-67
2021/01/11 07:06:38;;;;;;;52.28;29.20;;;;;;;6.19;63.58;101962.88;4936345;28;115504;-67
2021/01/11 07:09:06;;;;;;;55.38;29.60;;;;;;;6.20;63.26;101959.38;4932589;28;115891;-67
2021/01/11 07:11:41;;;;;;;49.35;28.95;;;;;;;6.21;63.71;101961.09;4919622;28;124245;-67
2021/01/11 07:14:09;;;;;;;57.50;29.45;;;;;;;6.22;63.73;101952.34;4926905;28;124827;-67
2021/01/11 07:16:46;;;;;;;47.10;27.27;;;;;;;6.21;63.48;101934.78;4936801;28;113898;-68
2021/01/11 07:19:14;;;;;;;53.80;29.48;;;;;;;6.23;63.59;101943.53;4916888;28;113359;-67
2021/01/11 07:21:41;;;;;;;48.55;27.52;;;;;;;6.23;63.42;101936.53;4938549;28;123218;-67
2021/01/11 07:24:10;;;;;;;49.55;27.48;;;;;;;6.25;63.32;101931.25;4915759;28;123341;-67
2021/01/11 07:26:37;;;;;;;47.47;27.73;;;;;;;6.26;63.38;101927.75;4916169;28;113572;-67
2021/01/11 07:29:04;;;;;;;46.70;26.02;;;;;;;6.25;63.54;101931.25;4935164;28;114862;-67
2021/01/11 07:31:36;;;;;;;48.58;26.70;;;;;;;6.26;63.73;101935.63;4934080;28;124290;-67
2021/01/11 07:34:07;;;;;;;47.25;26.05;;;;;;;6.28;63.50;101952.28;4931919;28;124191;-67
2021/01/11 07:36:40;;;;;;;52.72;26.67;;;;;;;6.29;63.69;101948.78;4933458;28;114456;-67
2021/01/11 07:39:14;;;;;;;44.55;25.75;;;;;;;6.29;63.39;101954.03;4918373;28;113122;-67
2021/01/11 07:41:49;;;;;;;42.03;24.50;;;;;;;6.31;63.47;101947.00;4920431;28;124322;-67
2021/01/11 07:44:36;;;;;;;44.53;25.42;;;;;;;6.31;63.27;101930.31;4920752;28;124223;-67
2021/01/11 07:47:14;;;;;;;43.80;24.95;;;;;;;6.31;63.21;101933.84;4940778;28;114583;-67
2021/01/11 07:49:49;;;;;;;45.08;25.17;;;;;;;6.30;63.55;101924.19;4921048;28;112861;-66
2021/01/11 07:52:19;;;;;;;44.27;25.57;;;;;;;6.30;63.67;101908.41;4936896;28;124540;-66
2021/01/11 07:54:49;;;;;;;47.08;26.10;;;;;;;6.31;63.38;101910.16;4930985;28;124288;-67
2021/01/11 07:57:16;;;;;;;42.20;25.27;;;;;;;6.30;63.23;101908.41;4935331;28;114801;-67
2021/01/11 07:59:43;;;;;;;44.45;25.05;;;;;;;6.30;63.52;101902.28;4943195;28;114961;-68
2021/01/11 08:02:12;;;;;;;45.22;24.83;;;;;;;6.28;63.24;101894.41;4896930;28;122999;-67
2021/01/11 08:04:41;;;;;;;45.70;25.30;;;;;;;6.27;63.62;101892.63;4933095;28;124585;-67
2021/01/11 08:07:10;;;;;;;45.15;25.55;;;;;;;6.26;63.63;101884.78;4931116;28;114255;-67
2021/01/11 08:09:38;;;;;;;47.85;25.50;;;;;;;6.26;63.58;101880.38;4923050;28;112229;-67
2021/01/11 08:12:07;;;;;;;46.80;25.73;;;;;;;6.26;63.32;101885.66;4937455;28;124702;-67
2021/01/11 08:14:34;;;;;;;47.30;26.50;;;;;;;6.26;63.63;101880.38;4923981;28;123061;-67
2021/01/11 08:17:01;;;;;;;43.55;25.67;;;;;;;6.26;63.56;101880.38;4938203;28;114774;-68
2021/01/11 08:19:29;;;;;;;48.10;26.35;;;;;;;6.27;63.32;101887.38;4906645;28;112557;-68
2021/01/11 08:21:58;;;;;;;46.63;26.52;;;;;;;6.27;63.71;101887.38;4932321;28;124436;-67
2021/01/11 08:24:25;;;;;;;46.42;26.35;;;;;;;6.27;63.79;101892.63;4928940;28;124661;-68
2021/01/11 08:27:12;;;;;;;45.95;25.48;;;;;;;6.28;63.69;101907.56;4913978;28;113381;-68
2021/01/11 08:29:41;;;;;;;44.38;26.38;;;;;;;6.28;63.38;101915.44;4937238;28;113970;-68
2021/01/11 08:32:12;;;;;;;44.63;26.33;;;;;;;6.28;63.30;101910.19;4918559;28;124024;-68
2021/01/11 08:34:43;;;;;;;43.03;25.92;;;;;;;6.26;63.59;101927.75;4928729;28;123943;-68
2021/01/11 08:37:28;;;;;;;44.03;25.55;;;;;;;6.26;63.42;101911.97;4940157;28;115147;-68
2021/01/11 08:40:01;;;;;;;45.58;25.65;;;;;;;6.28;63.36;101920.69;4924942;28;113196;-67
2021/01/11 08:42:29;;;;;;;42.72;25.40;;;;;;;6.30;63.58;101918.06;4935610;28;124287;-68
2021/01/11 08:45:25;;;;;;;44.80;25.52;;;;;;;6.30;63.60;101905.78;4913768;28;122844;-67
2021/01/11 08:48:08;;;;;;;;;;;;;;;6.30;63.67;101908.41;4924163;28;115309;-67
2021/01/11 08:51:00;;;;;;;41.63;24.10;;;;;;;6.32;63.32;101911.88;4935964;28;114882;-68
2021/01/11 08:53:32;;;;;;;45.53;24.58;;;;;;;6.32;63.33;101896.09;4930119;28;127688;-67
2021/01/11 08:56:12;;;;;;;42.60;25.33;;;;;;;6.32;63.77;101879.44;4932200;28;122865;-68
2021/01/11 08:58:48;;;;;;;47.60;25.50;;;;;;;6.31;63.92;101899.63;4927590;28;115049;-68
2021/01/11 09:01:19;;;;;;;46.13;25.08;;;;;;;6.32;63.65;101909.25;4938619;28;114069;-67
2021/01/11 09:03:49;;;;;;;44.58;26.08;;;;;;;6.35;63.71;101911.88;4936032;28;124318;-67
2021/01/11 09:06:37;;;;;;;42.05;25.48;;;;;;;6.35;63.52;101911.88;4934770;28;124640;-67
2021/01/11 09:09:08;;;;;;;42.38;24.90;;;;;;;6.37;63.56;101910.09;4937848;28;114392;-67
2021/01/11 09:11:36;;;;;;;39.97;24.73;;;;;;;6.39;63.92;101905.69;4920882;28;112687;-68
2021/01/11 09:14:10;;;;;;;42.08;24.48;;;;;;;6.41;63.91;101901.28;4920041;28;123447;-68
2021/01/11 09:16:37;;;;;;;45.17;25.75;;;;;;;6.43;63.58;101903.88;4919407;28;122673;-67
2021/01/11 09:19:13;;;;;;;45.53;25.48;;;;;;;6.42;63.70;101897.75;4924569;28;114429;-67
2021/01/11 09:21:41;;;;;;;44.00;25.80;;;;;;;6.47;63.38;101888.94;4932299;28;113319;-68
2021/01/11 09:24:09;;;;;;;42.40;25.00;;;;;;;6.46;63.64;101882.81;4942979;28;124017;-68
2021/01/11 09:26:38;;;;;;;42.30;24.65;;;;;;;6.48;63.67;101885.41;4946621;28;124282;-66
2021/01/11 09:29:05;;;;;;;42.17;25.55;;;;;;;6.47;63.52;101886.31;4922293;28;114867;-67
2021/01/11 09:31:32;;;;;;;44.20;25.00;;;;;;;6.50;63.84;101883.63;4948409;28;114837;-67
2021/01/11 09:34:03;;;;;;;41.38;25.58;;;;;;;6.51;63.53;101875.72;4933368;28;124305;-67
2021/01/11 09:36:35;;;;;;;44.35;25.77;;;;;;;6.53;63.43;101878.34;4953273;28;123632;-67
2021/01/11 09:39:04;;;;;;;45.42;27.48;;;;;;;6.55;63.72;101881.81;4951117;28;115537;-67
2021/01/11 09:41:31;;;;;;;44.38;26.13;;;;;;;6.56;63.69;101878.31;4951099;28;113975;-67
2021/01/11 09:43:58;;;;;;;45.22;25.88;;;;;;;6.57;63.83;101875.66;4931251;28;125054;-67
2021/01/11 09:46:24;;;;;;;41.58;25.63;;;;;;;6.61;63.67;101876.47;4952693;28;123621;-68
2021/01/11 09:48:52;;;;;;;41.83;25.33;;;;;;;6.62;63.83;101872.97;4947017;28;114457;-67
2021/01/11 09:51:19;;;;;;;44.60;25.90;;;;;;;6.64;63.79;101858.03;4953227;28;114644;-68
2021/01/11 09:53:46;;;;;;;42.60;25.88;;;;;;;6.66;63.76;101863.28;4931103;28;124399;-69
2021/01/11 09:56:12;;;;;;;42.45;26.58;;;;;;;6.67;63.93;101876.44;4925530;28;124377;-68
2021/01/11 09:58:39;;;;;;;42.05;25.45;;;;;;;6.69;63.68;101885.16;4951451;28;114855;-68
2021/01/11 10:01:05;;;;;;;43.42;25.55;;;;;;;6.74;63.62;101888.63;4931631;28;113643;-68
2021/01/11 10:03:32;;;;;;;42.70;25.80;;;;;;;6.76;63.71;101878.94;4951720;28;124053;-68
2021/01/11 10:05:59;;;;;;;43.83;25.58;;;;;;;6.80;63.49;101878.00;4936400;28;123269;-68
2021/01/11 10:08:25;;;;;;;44.70;25.52;;;;;;;6.79;63.37;101881.53;4935935;28;114450;-68
2021/01/11 10:10:52;;;;;;;40.40;25.38;;;;;;;6.82;63.54;101876.22;4953026;28;113869;-68
2021/01/11 10:13:19;;;;;;;41.38;25.65;;;;;;;6.83;63.58;101870.06;4945384;28;125180;-68
2021/01/11 10:15:45;;;;;;;42.63;25.08;;;;;;;6.85;63.57;101869.19;4947901;28;124216;-67
2021/01/11 10:18:12;;;;;;;40.78;24.50;;;;;;;6.85;63.20;101874.44;4947683;28;114129;-66
2021/01/11 10:20:42;;;;;;;40.63;24.80;;;;;;;6.86;63.54;101870.94;4908474;28;114451;-67
2021/01/11 10:23:10;;;;;;;38.30;24.25;;;;;;;6.86;63.37;101865.66;4926685;28;124448;-66
2021/01/11 10:25:37;;;;;;;42.05;24.60;;;;;;;6.88;63.46;101858.63;4899909;28;124412;-67
2021/01/11 10:28:04;;;;;;;38.90;24.63;;;;;;;6.88;63.13;101869.16;4932474;28;115277;-66
2021/01/11 10:30:30;;;;;;;38.67;23.38;;;;;;;6.89;63.35;101863.84;4917843;28;114374;-67
2021/01/11 10:32:57;;;;;;;37.47;23.20;;;;;;;6.92;63.59;101860.31;4925493;28;123400;-67
2021/01/11 10:35:24;;;;;;;33.15;22.88;;;;;;;6.94;63.42;101853.25;4951012;28;123682;-68
2021/01/11 10:37:51;;;;;;;40.58;24.23;;;;;;;6.97;63.38;101850.59;4980880;22;115146;-71
2021/01/11 10:40:17;;;;;;;39.70;24.23;;;;;;;7.00;63.08;101853.16;4958073;28;113885;-68
2021/01/11 10:42:47;;;;;;;37.55;23.50;;;;;;;7.02;63.11;101854.00;4953509;28;123074;-69
2021/01/11 10:45:14;;;;;;;35.85;22.23;;;;;;;7.04;63.17;101844.31;4952827;28;122848;-69
2021/01/11 10:47:40;;;;;;;39.38;22.88;;;;;;;7.06;63.08;101844.31;4951506;28;113768;-70
2021/01/11 10:50:08;;;;;;;35.45;22.52;;;;;;;7.08;63.12;101846.00;4951490;28;115022;-69
2021/01/11 10:52:34;;;;;;;36.15;22.13;;;;;;;7.08;63.11;101835.47;4944987;28;124648;-69
2021/01/11 10:55:01;;;;;;;36.80;22.05;;;;;;;7.09;62.86;101831.97;4949490;28;123299;-69
2021/01/11 10:57:27;;;;;;;39.25;24.02;;;;;;;7.12;62.84;101834.56;4949016;28;114318;-69
2021/01/11 10:59:54;;;;;;;35.92;21.52;;;;;;;7.12;62.90;101831.94;4934286;28;114321;-70
2021/01/11 11:02:20;;;;;;;38.28;23.08;;;;;;;7.15;62.99;101836.28;4950649;28;124052;-70
2021/01/11 11:04:47;;;;;;;36.17;22.20;;;;;;;7.17;63.04;101830.06;4931221;28;123313;-69
2021/01/11 11:07:14;;;;;;;37.67;22.92;;;;;;;7.18;62.64;101815.16;4946528;28;114593;-70
2021/01/11 11:09:40;;;;;;;34.65;22.20;;;;;;;7.17;62.71;101803.72;4948320;28;113806;-69
2021/01/11 11:12:07;;;;;;;35.55;22.33;;;;;;;7.19;62.67;101806.34;4949944;28;123852;-69
2021/01/11 11:14:33;;;;;;;33.20;21.88;;;;;;;7.21;62.83;101799.28;4930594;28;123742;-69
2021/01/11 11:17:00;;;;;;;36.17;23.42;;;;;;;7.21;62.63;101809.81;4932390;28;115148;-69
2021/01/11 11:19:26;;;;;;;33.22;22.38;;;;;;;7.24;62.66;101801.03;4951555;28;114890;-69
2021/01/11 11:21:53;;;;;;;36.45;22.10;;;;;;;7.26;62.72;101801.88;4951132;28;123631;-69